sensor_id;sensor_type;location;lat;lon;timestamp;pressure;altitude;pressure_sealevel;temperature;humidity
16690;BME280;8458;52.220;9.884;2023-01-28T00:01:13;102037.63;;;2.17;80.73
16690;BME280;8458;52.220;9.884;2023-01-28T00:03:41;102037.94;;;2.22;80.65
16690;BME280;8458;52.220;9.884;2023-01-28T00:06:09;102040.66;;;2.22;80.71
16690;BME280;8458;52.220;9.884;2023-01-28T00:08:37;102041.69;;;2.29;80.75
16690;BME280;8458;52.220;9.884;2023-01-28T00:11:04;102039.13;;;2.28;80.62
16690;BME280;8458;52.220;9.884;2023-01-28T00:13:32;102035.16;;;2.30;80.73
16690;BME280;8458;52.220;9.884;2023-01-28T00:16:00;102034.31;;;2.30;80.81
16690;BME280;8458;52.220;9.884;2023-01-28T00:18:27;102034.19;;;2.23;80.50
16690;BME280;8458;52.220;9.884;2023-01-28T00:20:59;102029.06;;;2.20;80.66
16690;BME280;8458;52.220;9.884;2023-01-28T00:23:26;102029.91;;;2.21;80.50
16690;BME280;8458;52.220;9.884;2023-01-28T00:25:53;102031.44;;;2.23;80.67
16690;BME280;8458;52.220;9.884;2023-01-28T00:28:20;102029.72;;;2.22;80.95
16690;BME280;8458;52.220;9.884;2023-01-28T00:30:47;102028.69;;;2.23;81.22
16690;BME280;8458;52.220;9.884;2023-01-28T00:33:13;102036.88;;;2.31;80.96
16690;BME280;8458;52.220;9.884;2023-01-28T00:35:39;102036.88;;;2.31;81.49
16690;BME280;8458;52.220;9.884;2023-01-28T00:38:08;102034.53;;;2.20;81.37
16690;BME280;8458;52.220;9.884;2023-01-28T00:40:35;102043.00;;;2.33;81.59
16690;BME280;8458;52.220;9.884;2023-01-28T00:43:02;102036.47;;;2.43;81.49
16690;BME280;8458;52.220;9.884;2023-01-28T00:45:28;102040.25;;;2.42;81.03
16690;BME280;8458;52.220;9.884;2023-01-28T00:47:55;102043.19;;;2.40;81.17
16690;BME280;8458;52.220;9.884;2023-01-28T00:50:21;102045.41;;;2.37;81.21
16690;BME280;8458;52.220;9.884;2023-01-28T00:52:48;102046.09;;;2.39;81.03
16690;BME280;8458;52.220;9.884;2023-01-28T00:55:15;102033.44;;;2.38;81.08
16690;BME280;8458;52.220;9.884;2023-01-28T00:57:42;102044.72;;;2.35;81.58
16690;BME280;8458;52.220;9.884;2023-01-28T01:00:09;102042.84;;;2.35;81.89
16690;BME280;8458;52.220;9.884;2023-01-28T01:02:36;102043.34;;;2.39;82.14
16690;BME280;8458;52.220;9.884;2023-01-28T01:05:03;102046.09;;;2.39;82.34
16690;BME280;8458;52.220;9.884;2023-01-28T01:07:30;102046.94;;;2.39;82.26
16690;BME280;8458;52.220;9.884;2023-01-28T01:10:08;102046.44;;;2.36;82.30
16690;BME280;8458;52.220;9.884;2023-01-28T01:12:36;102046.94;;;2.39;82.03
16690;BME280;8458;52.220;9.884;2023-01-28T01:15:04;102049.50;;;2.41;81.98
16690;BME280;8458;52.220;9.884;2023-01-28T01:17:33;102045.75;;;2.42;81.72
16690;BME280;8458;52.220;9.884;2023-01-28T01:20:01;102043.00;;;2.33;81.45
16690;BME280;8458;52.220;9.884;2023-01-28T01:22:28;102051.94;;;2.36;81.58
16690;BME280;8458;52.220;9.884;2023-01-28T01:24:57;102049.84;;;2.38;81.57
16690;BME280;8458;52.220;9.884;2023-01-28T01:27:24;102042.66;;;2.37;81.75
16690;BME280;8458;52.220;9.884;2023-01-28T01:29:52;102047.16;;;2.29;81.34
16690;BME280;8458;52.220;9.884;2023-01-28T01:32:18;102036.22;;;2.29;81.43
16690;BME280;8458;52.220;9.884;2023-01-28T01:34:46;102042.16;;;2.33;81.19
16690;BME280;8458;52.220;9.884;2023-01-28T01:37:13;102034.50;;;2.28;81.29
16690;BME280;8458;52.220;9.884;2023-01-28T01:39:40;102041.31;;;2.32;81.23
16690;BME280;8458;52.220;9.884;2023-01-28T01:42:09;102042.00;;;2.35;80.83
16690;BME280;8458;52.220;9.884;2023-01-28T01:44:53;102044.72;;;2.35;80.65
16690;BME280;8458;52.220;9.884;2023-01-28T01:47:23;102044.38;;;2.38;80.39
16690;BME280;8458;52.220;9.884;2023-01-28T01:49:50;102039.25;;;2.35;80.33
16690;BME280;8458;52.220;9.884;2023-01-28T01:52:21;102049.38;;;2.26;79.79
16690;BME280;8458;52.220;9.884;2023-01-28T01:54:51;102041.69;;;2.21;79.58
16690;BME280;8458;52.220;9.884;2023-01-28T01:57:23;102045.47;;;2.20;79.70
16690;BME280;8458;52.220;9.884;2023-01-28T01:59:54;102045.78;;;2.25;79.83
16690;BME280;8458;52.220;9.884;2023-01-28T02:02:29;102048.56;;;2.17;79.73
16690;BME280;8458;52.220;9.884;2023-01-28T02:04:55;102051.31;;;2.17;79.56
16690;BME280;8458;52.220;9.884;2023-01-28T02:07:22;102052.63;;;2.21;79.78
16690;BME280;8458;52.220;9.884;2023-01-28T02:09:48;102052.66;;;2.13;80.00
16690;BME280;8458;52.220;9.884;2023-01-28T02:12:17;102051.66;;;2.06;80.08
16690;BME280;8458;52.220;9.884;2023-01-28T02:14:49;102059.50;;;2.09;80.28
16690;BME280;8458;52.220;9.884;2023-01-28T02:17:20;102056.81;;;2.01;80.50
16690;BME280;8458;52.220;9.884;2023-01-28T02:19:52;102059.75;;;1.91;80.64
16690;BME280;8458;52.220;9.884;2023-01-28T02:25:33;102070.84;;;1.97;80.96
16690;BME280;8458;52.220;9.884;2023-01-28T02:28:17;102065.84;;;2.01;81.05
16690;BME280;8458;52.220;9.884;2023-01-28T02:30:51;102065.38;;;1.97;81.16
16690;BME280;8458;52.220;9.884;2023-01-28T02:33:22;102068.41;;;2.03;81.22
16690;BME280;8458;52.220;9.884;2023-01-28T02:35:53;102070.31;;;2.02;81.38
16690;BME280;8458;52.220;9.884;2023-01-28T02:38:23;102064.66;;;2.04;81.30
16690;BME280;8458;52.220;9.884;2023-01-28T02:40:54;102064.31;;;2.07;81.07
16690;BME280;8458;52.220;9.884;2023-01-28T02:43:33;102068.94;;;2.06;80.63
16690;BME280;8458;52.220;9.884;2023-01-28T02:46:10;102053.22;;;2.00;80.37
16690;BME280;8458;52.220;9.884;2023-01-28T02:48:56;102061.25;;;2.02;80.76
16690;BME280;8458;52.220;9.884;2023-01-28T02:51:35;102054.41;;;1.97;80.91
16690;BME280;8458;52.220;9.884;2023-01-28T02:54:10;102048.47;;;1.94;80.58
16690;BME280;8458;52.220;9.884;2023-01-28T02:56:41;102041.47;;;1.83;80.50
16690;BME280;8458;52.220;9.884;2023-01-28T02:59:13;102050.00;;;1.72;80.53
16690;BME280;8458;52.220;9.884;2023-01-28T03:02:03;102048.97;;;1.81;80.87
16690;BME280;8458;52.220;9.884;2023-01-28T03:04:37;102054.09;;;1.84;80.68
16690;BME280;8458;52.220;9.884;2023-01-28T03:07:08;102052.22;;;1.76;80.63
16690;BME280;8458;52.220;9.884;2023-01-28T03:09:38;102049.34;;;1.70;80.15
16690;BME280;8458;52.220;9.884;2023-01-28T03:12:08;102052.75;;;1.80;80.42
16690;BME280;8458;52.220;9.884;2023-01-28T03:14:57;102051.34;;;1.84;79.61
16690;BME280;8458;52.220;9.884;2023-01-28T03:17:44;102049.31;;;1.86;79.85
16690;BME280;8458;52.220;9.884;2023-01-28T03:20:36;102057.69;;;1.76;80.30
16690;BME280;8458;52.220;9.884;2023-01-28T03:23:27;102049.16;;;1.79;80.36
16690;BME280;8458;52.220;9.884;2023-01-28T03:26:13;102043.50;;;1.81;80.39
16690;BME280;8458;52.220;9.884;2023-01-28T03:29:03;102047.28;;;1.80;80.55
16690;BME280;8458;52.220;9.884;2023-01-28T03:31:51;102045.19;;;1.90;80.86
16690;BME280;8458;52.220;9.884;2023-01-28T03:34:36;102051.38;;;1.92;80.85
16690;BME280;8458;52.220;9.884;2023-01-28T03:37:21;102043.81;;;1.94;80.55
16690;BME280;8458;52.220;9.884;2023-01-28T03:39:47;102042.28;;;2.00;80.58
16690;BME280;8458;52.220;9.884;2023-01-28T03:42:14;102042.28;;;1.92;80.26
16690;BME280;8458;52.220;9.884;2023-01-28T03:44:42;102039.03;;;1.96;79.94
16690;BME280;8458;52.220;9.884;2023-01-28T03:47:18;102045.88;;;1.92;80.22
16690;BME280;8458;52.220;9.884;2023-01-28T03:49:45;102044.88;;;1.85;79.70
16690;BME280;8458;52.220;9.884;2023-01-28T03:52:13;102049.84;;;1.82;79.94
16690;BME280;8458;52.220;9.884;2023-01-28T03:54:40;102047.94;;;1.82;79.70
16690;BME280;8458;52.220;9.884;2023-01-28T03:57:07;102045.56;;;1.79;80.06
16690;BME280;8458;52.220;9.884;2023-01-28T03:59:33;102048.31;;;1.79;80.67
16690;BME280;8458;52.220;9.884;2023-01-28T04:02:00;102047.59;;;1.85;81.09
16690;BME280;8458;52.220;9.884;2023-01-28T04:04:28;102049.81;;;1.90;80.79
16690;BME280;8458;52.220;9.884;2023-01-28T04:06:57;102045.00;;;1.92;81.13
16690;BME280;8458;52.220;9.884;2023-01-28T04:09:24;102051.19;;;1.86;80.21
16690;BME280;8458;52.220;9.884;2023-01-28T04:11:50;102053.75;;;1.87;80.39
16690;BME280;8458;52.220;9.884;2023-01-28T04:14:17;102064.34;;;1.90;79.35
16690;BME280;8458;52.220;9.884;2023-01-28T04:16:44;102064.38;;;1.82;77.43
16690;BME280;8458;52.220;9.884;2023-01-28T04:19:11;102073.25;;;1.84;76.81
16690;BME280;8458;52.220;9.884;2023-01-28T04:21:39;102058.72;;;1.84;76.46
16690;BME280;8458;52.220;9.884;2023-01-28T04:24:06;102065.72;;;1.78;75.67
16690;BME280;8458;52.220;9.884;2023-01-28T04:26:32;102073.94;;;1.70;74.85
16690;BME280;8458;52.220;9.884;2023-01-28T04:28:59;102062.16;;;1.61;74.26
16690;BME280;8458;52.220;9.884;2023-01-28T04:31:25;102076.34;;;1.56;74.50
16690;BME280;8458;52.220;9.884;2023-01-28T04:33:52;102080.78;;;1.57;74.83
16690;BME280;8458;52.220;9.884;2023-01-28T04:36:18;102080.09;;;1.64;74.88
16690;BME280;8458;52.220;9.884;2023-01-28T04:38:46;102083.38;;;1.51;74.63
16690;BME280;8458;52.220;9.884;2023-01-28T04:41:12;102095.66;;;1.47;74.24
16690;BME280;8458;52.220;9.884;2023-01-28T04:43:39;102088.97;;;1.41;73.65
16690;BME280;8458;52.220;9.884;2023-01-28T04:46:06;102097.38;;;1.56;74.25
16690;BME280;8458;52.220;9.884;2023-01-28T04:48:32;102104.72;;;1.55;73.75
16690;BME280;8458;52.220;9.884;2023-01-28T04:51:00;102100.63;;;1.51;74.07
16690;BME280;8458;52.220;9.884;2023-01-28T04:53:27;102092.75;;;1.48;75.34
16690;BME280;8458;52.220;9.884;2023-01-28T04:55:55;102098.06;;;1.50;76.01
16690;BME280;8458;52.220;9.884;2023-01-28T04:58:21;102091.22;;;1.37;76.56
16690;BME280;8458;52.220;9.884;2023-01-28T05:00:53;102092.41;;;1.35;76.95
16690;BME280;8458;52.220;9.884;2023-01-28T05:03:20;102091.53;;;1.34;76.61
16690;BME280;8458;52.220;9.884;2023-01-28T05:05:46;102086.09;;;1.34;77.12
16690;BME280;8458;52.220;9.884;2023-01-28T05:08:13;102092.94;;;1.30;75.70
16690;BME280;8458;52.220;9.884;2023-01-28T05:10:40;102097.19;;;1.33;75.90
16690;BME280;8458;52.220;9.884;2023-01-28T05:13:08;102096.00;;;1.43;75.44
16690;BME280;8458;52.220;9.884;2023-01-28T05:15:34;102097.88;;;1.43;75.92
16690;BME280;8458;52.220;9.884;2023-01-28T05:18:01;102100.44;;;1.45;76.14
16690;BME280;8458;52.220;9.884;2023-01-28T05:20:27;102096.34;;;1.49;76.05
16690;BME280;8458;52.220;9.884;2023-01-28T05:22:54;102095.16;;;1.43;76.16
16690;BME280;8458;52.220;9.884;2023-01-28T05:25:20;102099.94;;;1.49;75.79
16690;BME280;8458;52.220;9.884;2023-01-28T05:27:49;102097.88;;;1.51;75.79
16690;BME280;8458;52.220;9.884;2023-01-28T05:30:17;102103.34;;;1.51;75.59
16690;BME280;8458;52.220;9.884;2023-01-28T05:32:44;102100.28;;;1.46;75.42
16690;BME280;8458;52.220;9.884;2023-01-28T05:35:11;102104.38;;;1.50;75.28
16690;BME280;8458;52.220;9.884;2023-01-28T05:37:37;102106.94;;;1.43;74.88
16690;BME280;8458;52.220;9.884;2023-01-28T05:40:05;102102.50;;;1.51;74.43
16690;BME280;8458;52.220;9.884;2023-01-28T05:42:31;102099.25;;;1.55;74.59
16690;BME280;8458;52.220;9.884;2023-01-28T05:44:58;102101.13;;;1.63;74.50
16690;BME280;8458;52.220;9.884;2023-01-28T05:47:26;102093.44;;;1.58;74.54
16690;BME280;8458;52.220;9.884;2023-01-28T05:49:52;102086.97;;;1.68;74.82
16690;BME280;8458;52.220;9.884;2023-01-28T05:52:19;102090.03;;;1.73;75.32
16690;BME280;8458;52.220;9.884;2023-01-28T05:54:45;102086.94;;;1.76;75.48
16690;BME280;8458;52.220;9.884;2023-01-28T05:57:12;102088.66;;;1.77;75.70
16690;BME280;8458;52.220;9.884;2023-01-28T05:59:39;102094.81;;;1.79;75.54
16690;BME280;8458;52.220;9.884;2023-01-28T06:02:05;102095.66;;;1.79;75.69
16690;BME280;8458;52.220;9.884;2023-01-28T06:04:33;102086.28;;;1.74;75.54
16690;BME280;8458;52.220;9.884;2023-01-28T06:06:59;102088.31;;;1.80;75.59
16690;BME280;8458;52.220;9.884;2023-01-28T06:09:26;102083.16;;;1.85;75.62
16690;BME280;8458;52.220;9.884;2023-01-28T06:11:52;102087.78;;;1.85;75.57
16690;BME280;8458;52.220;9.884;2023-01-28T06:14:19;102081.13;;;1.79;75.53
16690;BME280;8458;52.220;9.884;2023-01-28T06:16:45;102080.81;;;1.74;74.89
16690;BME280;8458;52.220;9.884;2023-01-28T06:19:12;102091.03;;;1.64;74.42
16690;BME280;8458;52.220;9.884;2023-01-28T06:21:39;102097.91;;;1.68;73.93
16690;BME280;8458;52.220;9.884;2023-01-28T06:24:07;102101.31;;;1.70;74.58
16690;BME280;8458;52.220;9.884;2023-01-28T06:26:34;102107.13;;;1.67;74.33
16690;BME280;8458;52.220;9.884;2023-01-28T06:29:00;102101.66;;;1.67;74.24
16690;BME280;8458;52.220;9.884;2023-01-28T06:31:27;102101.66;;;1.67;74.20
16690;BME280;8458;52.220;9.884;2023-01-28T06:33:53;102098.75;;;1.68;74.42
16690;BME280;8458;52.220;9.884;2023-01-28T06:36:19;102112.22;;;1.53;73.65
16690;BME280;8458;52.220;9.884;2023-01-28T06:38:47;102103.00;;;1.54;73.08
16690;BME280;8458;52.220;9.884;2023-01-28T06:41:14;102100.28;;;1.46;72.34
16690;BME280;8458;52.220;9.884;2023-01-28T06:43:40;102100.63;;;1.43;72.46
16690;BME280;8458;52.220;9.884;2023-01-28T06:46:06;102109.84;;;1.25;72.56
16690;BME280;8458;52.220;9.884;2023-01-28T06:48:33;102106.22;;;1.33;73.17
16690;BME280;8458;52.220;9.884;2023-01-28T06:50:59;102099.25;;;1.39;73.29
16690;BME280;8458;52.220;9.884;2023-01-28T06:53:26;102099.25;;;1.39;73.65
16690;BME280;8458;52.220;9.884;2023-01-28T06:55:54;102110.69;;;1.42;73.80
16690;BME280;8458;52.220;9.884;2023-01-28T06:58:20;102118.88;;;1.34;74.01
16690;BME280;8458;52.220;9.884;2023-01-28T07:00:47;102107.78;;;1.44;74.41
16690;BME280;8458;52.220;9.884;2023-01-28T07:03:13;102102.00;;;1.55;75.06
16690;BME280;8458;52.220;9.884;2023-01-28T07:05:39;102106.78;;;1.61;74.94
16690;BME280;8458;52.220;9.884;2023-01-28T07:08:06;102106.28;;;1.66;75.19
16690;BME280;8458;52.220;9.884;2023-01-28T07:10:32;102111.22;;;1.71;75.07
16690;BME280;8458;52.220;9.884;2023-01-28T07:13:00;102109.16;;;1.73;75.16
16690;BME280;8458;52.220;9.884;2023-01-28T07:15:27;102113.63;;;1.74;75.19
16690;BME280;8458;52.220;9.884;2023-01-28T07:17:54;102107.81;;;1.77;75.21
16690;BME280;8458;52.220;9.884;2023-01-28T07:20:20;102109.16;;;1.73;75.22
16690;BME280;8458;52.220;9.884;2023-01-28T07:22:47;102104.38;;;1.75;75.08
16690;BME280;8458;52.220;9.884;2023-01-28T07:25:14;102111.56;;;1.76;75.23
16690;BME280;8458;52.220;9.884;2023-01-28T07:27:46;102105.75;;;1.79;75.03
16690;BME280;8458;52.220;9.884;2023-01-28T07:30:15;102102.50;;;1.67;74.89
16690;BME280;8458;52.220;9.884;2023-01-28T07:32:43;102109.53;;;1.61;74.32
16690;BME280;8458;52.220;9.884;2023-01-28T07:35:09;102106.28;;;1.66;73.88
16690;BME280;8458;52.220;9.884;2023-01-28T07:37:36;102110.69;;;1.59;73.53
16690;BME280;8458;52.220;9.884;2023-01-28T07:40:03;102110.69;;;1.59;73.73
16690;BME280;8458;52.220;9.884;2023-01-28T07:42:30;102122.16;;;1.63;73.42
16690;BME280;8458;52.220;9.884;2023-01-28T07:44:57;102129.00;;;1.58;72.82
16690;BME280;8458;52.220;9.884;2023-01-28T07:47:25;102125.94;;;1.61;72.23
16690;BME280;8458;52.220;9.884;2023-01-28T07:49:51;102123.88;;;1.64;72.13
16690;BME280;8458;52.220;9.884;2023-01-28T07:52:18;102121.47;;;1.69;72.29
16690;BME280;8458;52.220;9.884;2023-01-28T07:54:44;102127.63;;;1.63;71.66
16690;BME280;8458;52.220;9.884;2023-01-28T07:57:11;102128.28;;;1.56;71.75
16690;BME280;8458;52.220;9.884;2023-01-28T07:59:37;102127.63;;;1.46;71.52
16690;BME280;8458;52.220;9.884;2023-01-28T08:02:04;102128.63;;;1.53;72.20
16690;BME280;8458;52.220;9.884;2023-01-28T08:04:32;102126.59;;;1.55;71.94
16690;BME280;8458;52.220;9.884;2023-01-28T08:06:59;102117.03;;;1.59;71.94
16690;BME280;8458;52.220;9.884;2023-01-28T08:09:25;102133.94;;;1.47;71.69
16690;BME280;8458;52.220;9.884;2023-01-28T08:11:52;102140.25;;;1.47;72.03
16690;BME280;8458;52.220;9.884;2023-01-28T08:14:18;102138.19;;;1.41;72.04
16690;BME280;8458;52.220;9.884;2023-01-28T08:16:45;102138.38;;;1.48;72.27
16690;BME280;8458;52.220;9.884;2023-01-28T08:19:12;102138.22;;;1.49;72.03
16690;BME280;8458;52.220;9.884;2023-01-28T08:21:40;102138.84;;;1.27;71.63
16690;BME280;8458;52.220;9.884;2023-01-28T08:24:06;102150.84;;;1.25;71.99
16690;BME280;8458;52.220;9.884;2023-01-28T08:26:33;102151.50;;;1.28;71.51
16690;BME280;8458;52.220;9.884;2023-01-28T08:28:59;102154.59;;;1.33;71.86
16690;BME280;8458;52.220;9.884;2023-01-28T08:31:26;102161.44;;;1.37;71.87
16690;BME280;8458;52.220;9.884;2023-01-28T08:33:53;102169.66;;;1.45;71.50
16690;BME280;8458;52.220;9.884;2023-01-28T08:36:20;102168.75;;;1.28;71.32
16690;BME280;8458;52.220;9.884;2023-01-28T08:38:50;102168.94;;;1.35;70.68
16690;BME280;8458;52.220;9.884;2023-01-28T08:41:19;102179.75;;;1.45;71.03
16690;BME280;8458;52.220;9.884;2023-01-28T08:43:46;102172.38;;;1.45;70.92
16690;BME280;8458;52.220;9.884;2023-01-28T08:46:14;102172.72;;;1.50;71.34
16690;BME280;8458;52.220;9.884;2023-01-28T08:48:40;102178.22;;;1.58;71.30
16690;BME280;8458;52.220;9.884;2023-01-28T08:51:07;102187.94;;;1.53;71.07
16690;BME280;8458;52.220;9.884;2023-01-28T08:53:34;102175.31;;;1.60;71.20
16690;BME280;8458;52.220;9.884;2023-01-28T08:56:01;102179.06;;;1.67;70.54
16690;BME280;8458;52.220;9.884;2023-01-28T08:58:28;102187.78;;;1.54;70.51
16690;BME280;8458;52.220;9.884;2023-01-28T09:00:54;102193.06;;;1.56;71.07
16690;BME280;8458;52.220;9.884;2023-01-28T09:03:21;102199.03;;;1.51;70.49
16690;BME280;8458;52.220;9.884;2023-01-28T09:05:47;102199.03;;;1.51;70.80
16690;BME280;8458;52.220;9.884;2023-01-28T09:08:14;102213.22;;;1.47;71.46
16690;BME280;8458;52.220;9.884;2023-01-28T09:10:41;102217.84;;;1.46;72.02
16690;BME280;8458;52.220;9.884;2023-01-28T09:13:10;102212.72;;;1.43;71.55
16690;BME280;8458;52.220;9.884;2023-01-28T09:15:37;102212.88;;;1.50;70.70
16690;BME280;8458;52.220;9.884;2023-01-28T09:18:04;102221.94;;;1.50;70.60
16690;BME280;8458;52.220;9.884;2023-01-28T09:20:31;102220.69;;;1.36;69.92
16690;BME280;8458;52.220;9.884;2023-01-28T09:22:58;102216.03;;;1.20;70.53
16690;BME280;8458;52.220;9.884;2023-01-28T09:25:25;102220.88;;;1.35;72.55
16690;BME280;8458;52.220;9.884;2023-01-28T09:27:52;102224.31;;;1.45;71.45
16690;BME280;8458;52.220;9.884;2023-01-28T09:30:20;102222.25;;;1.31;70.96
16690;BME280;8458;52.220;9.884;2023-01-28T09:32:49;102233.84;;;1.33;71.11
16690;BME280;8458;52.220;9.884;2023-01-28T09:35:15;102237.09;;;1.28;71.79
16690;BME280;8458;52.220;9.884;2023-01-28T09:37:43;102248.50;;;1.23;71.34
16690;BME280;8458;52.220;9.884;2023-01-28T09:40:14;102252.19;;;1.49;76.11
16690;BME280;8458;52.220;9.884;2023-01-28T09:43:03;102250.38;;;1.74;76.58
16690;BME280;8458;52.220;9.884;2023-01-28T09:45:37;102260.47;;;1.90;74.28
16690;BME280;8458;52.220;9.884;2023-01-28T09:48:10;102255.19;;;1.80;72.19
16690;BME280;8458;52.220;9.884;2023-01-28T09:50:41;102257.91;;;1.88;71.45
16690;BME280;8458;52.220;9.884;2023-01-28T09:53:11;102253.78;;;1.84;71.47
16690;BME280;8458;52.220;9.884;2023-01-28T09:55:43;102254.47;;;1.70;70.66
16690;BME280;8458;52.220;9.884;2023-01-28T09:58:12;102254.63;;;1.60;70.18
16690;BME280;8458;52.220;9.884;2023-01-28T10:00:50;102261.91;;;1.43;69.93
16690;BME280;8458;52.220;9.884;2023-01-28T10:03:46;102264.66;;;1.43;70.72
16690;BME280;8458;52.220;9.884;2023-01-28T10:06:24;102260.59;;;1.55;71.03
16690;BME280;8458;52.220;9.884;2023-01-28T10:09:07;102263.00;;;1.58;71.07
16690;BME280;8458;52.220;9.884;2023-01-28T10:11:52;102249.34;;;1.67;71.19
16690;BME280;8458;52.220;9.884;2023-01-28T10:14:26;102248.16;;;1.77;71.16
16690;BME280;8458;52.220;9.884;2023-01-28T10:17:05;102253.47;;;1.79;71.22
16690;BME280;8458;52.220;9.884;2023-01-28T10:19:40;102254.25;;;1.55;70.21
16690;BME280;8458;52.220;9.884;2023-01-28T10:22:12;102253.09;;;1.66;71.09
16690;BME280;8458;52.220;9.884;2023-01-28T10:24:44;102245.72;;;1.58;70.79
16690;BME280;8458;52.220;9.884;2023-01-28T10:27:16;102237.34;;;1.59;71.04
16690;BME280;8458;52.220;9.884;2023-01-28T10:29:46;102246.25;;;1.61;71.42
16690;BME280;8458;52.220;9.884;2023-01-28T10:32:21;102233.41;;;1.54;71.91
16690;BME280;8458;52.220;9.884;2023-01-28T10:34:48;102233.19;;;1.39;71.31
16690;BME280;8458;52.220;9.884;2023-01-28T10:37:17;102222.75;;;1.34;71.73
16690;BME280;8458;52.220;9.884;2023-01-28T10:39:43;102230.28;;;1.40;72.28
16690;BME280;8458;52.220;9.884;2023-01-28T10:42:19;102233.19;;;1.39;71.97
16690;BME280;8458;52.220;9.884;2023-01-28T10:44:52;102229.13;;;1.43;72.42
16690;BME280;8458;52.220;9.884;2023-01-28T10:47:30;102222.78;;;1.42;71.86
16690;BME280;8458;52.220;9.884;2023-01-28T10:49:58;102214.91;;;1.39;71.79
16690;BME280;8458;52.220;9.884;2023-01-28T10:52:25;102222.06;;;1.32;72.16
16690;BME280;8458;52.220;9.884;2023-01-28T10:54:58;102226.00;;;1.30;72.90
16690;BME280;8458;52.220;9.884;2023-01-28T10:57:25;102226.16;;;1.36;73.11
16690;BME280;8458;52.220;9.884;2023-01-28T10:59:51;102228.28;;;1.08;72.80
16690;BME280;8458;52.220;9.884;2023-01-28T11:02:27;102235.34;;;1.19;73.31
16690;BME280;8458;52.220;9.884;2023-01-28T11:05:05;102238.19;;;1.01;73.04
16690;BME280;8458;52.220;9.884;2023-01-28T11:07:33;102235.81;;;1.06;73.83
16690;BME280;8458;52.220;9.884;2023-01-28T11:10:00;102240.59;;;1.04;73.78
16690;BME280;8458;52.220;9.884;2023-01-28T11:12:28;102240.03;;;1.00;74.40
16690;BME280;8458;52.220;9.884;2023-01-28T11:14:56;102233.94;;;1.06;73.45
16690;BME280;8458;52.220;9.884;2023-01-28T11:17:26;102233.25;;;1.04;74.05
16690;BME280;8458;52.220;9.884;2023-01-28T11:19:54;102240.75;;;1.02;75.10
16690;BME280;8458;52.220;9.884;2023-01-28T11:22:27;102249.44;;;0.98;74.35
16690;BME280;8458;52.220;9.884;2023-01-28T11:24:57;102250.41;;;0.88;74.49
16690;BME280;8458;52.220;9.884;2023-01-28T11:27:26;102249.25;;;0.65;74.09
16690;BME280;8458;52.220;9.884;2023-01-28T11:29:55;102242.47;;;0.77;75.40
16690;BME280;8458;52.220;9.884;2023-01-28T11:32:25;102243.94;;;0.63;74.75
16690;BME280;8458;52.220;9.884;2023-01-28T11:34:54;102241.44;;;0.70;74.39
16690;BME280;8458;52.220;9.884;2023-01-28T11:37:23;102244.56;;;0.83;74.89
16690;BME280;8458;52.220;9.884;2023-01-28T11:40:00;102233.59;;;0.75;74.26
16690;BME280;8458;52.220;9.884;2023-01-28T11:42:26;102239.06;;;0.75;74.39
16690;BME280;8458;52.220;9.884;2023-01-28T11:44:53;102234.78;;;0.73;74.88
16690;BME280;8458;52.220;9.884;2023-01-28T11:47:34;102230.91;;;0.83;74.33
16690;BME280;8458;52.220;9.884;2023-01-28T11:50:22;102223.34;;;0.69;73.77
16690;BME280;8458;52.220;9.884;2023-01-28T11:52:58;102226.97;;;0.78;73.39
16690;BME280;8458;52.220;9.884;2023-01-28T11:55:37;102217.06;;;0.77;72.66
16690;BME280;8458;52.220;9.884;2023-01-28T11:58:15;102218.06;;;0.76;73.54
16690;BME280;8458;52.220;9.884;2023-01-28T12:00:46;102210.69;;;0.68;73.30
16690;BME280;8458;52.220;9.884;2023-01-28T12:03:43;102200.50;;;0.78;72.52
16690;BME280;8458;52.220;9.884;2023-01-28T12:06:27;102193.38;;;0.85;72.71
16690;BME280;8458;52.220;9.884;2023-01-28T12:09:06;102200.47;;;1.04;73.20
16690;BME280;8458;52.220;9.884;2023-01-28T12:11:47;102185.97;;;1.12;73.30
16690;BME280;8458;52.220;9.884;2023-01-28T12:17:46;102182.41;;;1.20;71.86
16690;BME280;8458;52.220;9.884;2023-01-28T12:20:23;102176.44;;;1.24;72.11
16690;BME280;8458;52.220;9.884;2023-01-28T12:23:14;102179.59;;;1.03;71.89
16690;BME280;8458;52.220;9.884;2023-01-28T12:28:52;102164.94;;;1.13;71.89
16690;BME280;8458;52.220;9.884;2023-01-28T12:31:34;102170.56;;;1.03;71.72
16690;BME280;8458;52.220;9.884;2023-01-28T12:34:17;102159.56;;;0.86;72.07
16690;BME280;8458;52.220;9.884;2023-01-28T12:36:53;102158.53;;;0.79;71.91
16690;BME280;8458;52.220;9.884;2023-01-28T12:39:33;102146.28;;;0.92;72.88
16690;BME280;8458;52.220;9.884;2023-01-28T12:42:09;102127.88;;;1.02;72.96
16690;BME280;8458;52.220;9.884;2023-01-28T12:44:39;102111.88;;;1.23;72.01
16690;BME280;8458;52.220;9.884;2023-01-28T12:47:10;102101.97;;;1.31;71.00
16690;BME280;8458;52.220;9.884;2023-01-28T12:49:39;102081.47;;;1.35;71.77
16690;BME280;8458;52.220;9.884;2023-01-28T12:52:13;102090.69;;;1.50;71.78
16690;BME280;8458;52.220;9.884;2023-01-28T12:54:44;102074.97;;;1.60;71.41
16690;BME280;8458;52.220;9.884;2023-01-28T12:57:25;102068.13;;;1.56;70.15
16690;BME280;8458;52.220;9.884;2023-01-28T12:59:56;102067.44;;;1.63;69.66
16690;BME280;8458;52.220;9.884;2023-01-28T13:02:28;102054.81;;;1.61;69.81
16690;BME280;8458;52.220;9.884;2023-01-28T13:05:03;102063.53;;;1.57;71.32
16690;BME280;8458;52.220;9.884;2023-01-28T13:07:35;102050.88;;;1.56;70.68
16690;BME280;8458;52.220;9.884;2023-01-28T13:10:09;102056.50;;;1.63;71.28
16690;BME280;8458;52.220;9.884;2023-01-28T13:12:39;102066.94;;;1.59;72.35
16690;BME280;8458;52.220;9.884;2023-01-28T13:15:11;102079.41;;;1.70;70.83
16690;BME280;8458;52.220;9.884;2023-01-28T13:17:38;102085.59;;;1.55;71.07
16690;BME280;8458;52.220;9.884;2023-01-28T13:20:13;102082.69;;;1.65;70.58
16690;BME280;8458;52.220;9.884;2023-01-28T13:22:43;102085.22;;;1.67;70.13
16690;BME280;8458;52.220;9.884;2023-01-28T13:25:19;102068.81;;;1.50;70.71
16690;BME280;8458;52.220;9.884;2023-01-28T13:27:55;102070.69;;;1.58;70.19
16690;BME280;8458;52.220;9.884;2023-01-28T13:30:26;102081.13;;;1.54;71.38
16690;BME280;8458;52.220;9.884;2023-01-28T13:32:58;102081.63;;;1.58;70.34
16690;BME280;8458;52.220;9.884;2023-01-28T13:35:31;102082.50;;;1.67;70.16